createdAt,value
2022-08-12T00:00:54.337Z,10.88
2022-08-12T00:03:39.733Z,19.75
2022-08-12T00:06:26.490Z,9.52
2022-08-12T00:09:12.546Z,7.90
2022-08-12T00:11:57.993Z,10.70
2022-08-12T00:14:43.412Z,9.13
2022-08-12T00:17:29.292Z,12.98
2022-08-12T00:20:14.775Z,8.55
2022-08-12T00:23:01.277Z,11.00
2022-08-12T00:26:20.494Z,6.32
2022-08-12T00:29:04.677Z,7.60
2022-08-12T00:31:49.974Z,7.00
2022-08-12T00:34:36.568Z,10.85
2022-08-12T00:37:23.866Z,4.95
2022-08-12T00:40:12.004Z,8.93
2022-08-12T00:42:41.822Z,10.82
2022-08-12T00:45:10.417Z,14.75
2022-08-12T00:47:39.178Z,16.10
2022-08-12T00:50:07.186Z,7.05
2022-08-12T00:52:35.904Z,9.80
2022-08-12T00:55:05.532Z,10.75
2022-08-12T00:57:37.143Z,16.95
2022-08-12T01:00:13.847Z,7.15
2022-08-12T01:02:46.359Z,10.52
2022-08-12T01:05:34.704Z,15.93
2022-08-12T01:08:21.092Z,13.38
2022-08-12T01:11:08.041Z,10.88
2022-08-12T01:13:39.461Z,10.07
2022-08-12T01:16:09.594Z,5.65
2022-08-12T01:18:39.873Z,6.88
2022-08-12T01:21:07.066Z,10.00
2022-08-12T01:24:23.051Z,6.72
2022-08-12T01:26:56.770Z,13.13
2022-08-12T01:29:28.594Z,7.38
2022-08-12T01:32:05.452Z,11.90
2022-08-12T01:34:38.868Z,13.38
2022-08-12T01:37:10.063Z,11.15
2022-08-12T01:40:35.796Z,9.77
2022-08-12T01:42:45.098Z,7.07
2022-08-12T01:45:13.212Z,9.18
2022-08-12T01:47:58.568Z,10.90
2022-08-12T01:51:00.307Z,14.32
2022-08-12T01:53:59.573Z,10.35
2022-08-12T01:56:42.108Z,9.43
2022-08-12T01:59:30.414Z,7.68
2022-08-12T02:01:59.872Z,9.65
2022-08-12T02:05:02.906Z,9.32
2022-08-12T02:08:03.693Z,14.77
2022-08-12T02:11:10.403Z,9.88
2022-08-12T02:13:50.079Z,12.27
2022-08-12T02:16:28.104Z,10.23
2022-08-12T02:19:03.420Z,16.33
2022-08-12T02:22:01.934Z,15.52
2022-08-12T02:24:34.598Z,10.23
2022-08-12T02:27:02.822Z,8.23
2022-08-12T02:29:30.458Z,8.57
2022-08-12T02:31:59.338Z,13.10
2022-08-12T02:34:28.128Z,12.98
2022-08-12T02:37:02.672Z,10.38
2022-08-12T02:39:34.165Z,10.75
2022-08-12T02:42:04.685Z,18.77
2022-08-12T02:44:38.176Z,9.77
2022-08-12T02:47:07.620Z,10.52
2022-08-12T02:49:58.934Z,13.80
2022-08-12T02:52:27.632Z,9.38
2022-08-12T02:55:01.669Z,9.50
2022-08-12T02:57:31.846Z,8.40
2022-08-12T03:00:04.336Z,10.52
2022-08-12T03:02:33.043Z,10.50
2022-08-12T03:05:03.567Z,11.73
2022-08-12T03:07:59.201Z,9.23
2022-08-12T03:10:37.349Z,9.20
2022-08-12T03:13:07.560Z,11.10
2022-08-12T03:15:36.003Z,12.93
2022-08-12T03:18:24.878Z,10.70
2022-08-12T03:20:56.985Z,14.05
2022-08-12T03:23:29.617Z,9.85
2022-08-12T03:26:02.838Z,12.55
2022-08-12T03:28:50.527Z,12.48
2022-08-12T03:31:24.604Z,13.00
2022-08-12T03:34:00.628Z,13.95
2022-08-12T03:36:35.366Z,11.55
2022-08-12T03:39:36.046Z,11.98
2022-08-12T03:42:24.182Z,13.13
2022-08-12T03:45:35.057Z,16.50
2022-08-12T03:48:35.836Z,11.60
2022-08-12T03:51:21.812Z,14.52
2022-08-12T03:54:11.090Z,14.27
2022-08-12T03:56:57.532Z,14.43
2022-08-12T03:59:42.978Z,10.73
2022-08-12T04:02:15.044Z,15.10
2022-08-12T04:04:45.729Z,14.30
2022-08-12T04:07:14.743Z,11.80
2022-08-12T04:09:44.078Z,13.65
2022-08-12T04:12:32.714Z,10.82
2022-08-12T04:15:01.493Z,14.32
2022-08-12T04:17:29.066Z,12.00
2022-08-12T04:19:58.119Z,14.38
2022-08-12T04:22:30.842Z,16.58
2022-08-12T04:25:01.426Z,17.17
2022-08-12T04:27:31.515Z,15.77
2022-08-12T04:30:29.263Z,12.88
2022-08-12T04:32:48.633Z,11.88
2022-08-12T04:35:16.870Z,19.58
2022-08-12T04:37:58.953Z,13.25
2022-08-12T04:40:30.410Z,10.60
2022-08-12T04:42:58.322Z,22.48
2022-08-12T04:45:25.352Z,13.82
2022-08-12T04:47:52.901Z,14.15
2022-08-12T04:50:34.036Z,34.50
2022-08-12T04:53:02.871Z,13.00
2022-08-12T04:55:30.579Z,15.02
2022-08-12T04:57:57.486Z,17.27
2022-08-12T05:00:24.739Z,12.57
2022-08-12T05:02:52.463Z,26.60
2022-08-12T05:05:23.361Z,12.07
2022-08-12T05:07:54.897Z,13.20
2022-08-12T05:10:33.459Z,12.88
2022-08-12T05:13:08.442Z,12.10
2022-08-12T05:16:04.885Z,16.45
2022-08-12T05:18:25.572Z,16.92
2022-08-12T05:20:59.265Z,16.13
2022-08-12T05:23:28.014Z,12.90
2022-08-12T05:25:57.144Z,20.50
2022-08-12T05:28:27.339Z,18.08
2022-08-12T05:30:56.493Z,14.52
2022-08-12T05:33:33.292Z,13.88
2022-08-12T05:36:00.136Z,12.43
2022-08-12T05:38:45.560Z,18.73
2022-08-12T05:41:21.321Z,12.75
2022-08-12T05:43:59.828Z,21.17
2022-08-12T05:46:28.926Z,18.13
2022-08-12T05:48:56.814Z,13.55
2022-08-12T05:51:39.800Z,21.85
2022-08-12T05:54:09.719Z,18.05
2022-08-12T05:56:37.212Z,15.73
2022-08-12T05:59:10.153Z,13.00
2022-08-12T06:02:09.752Z,22.40
2022-08-12T06:04:25.494Z,12.88
2022-08-12T06:06:53.735Z,16.52
2022-08-12T06:09:44.681Z,19.77
2022-08-12T06:12:12.034Z,22.30
2022-08-12T06:14:39.380Z,15.43
2022-08-12T06:17:09.040Z,12.07
2022-08-12T06:20:25.684Z,26.30
2022-08-12T06:22:24.496Z,19.38
2022-08-12T06:24:53.549Z,13.98
2022-08-12T06:27:21.589Z,14.95
2022-08-12T06:30:08.177Z,10.30
2022-08-12T06:32:35.704Z,15.43
2022-08-12T06:35:26.844Z,22.25
2022-08-12T06:37:56.971Z,19.00
2022-08-12T06:40:43.809Z,14.40
2022-08-12T06:43:11.135Z,16.15
2022-08-12T06:45:47.370Z,8.90
2022-08-12T06:48:14.525Z,10.60
2022-08-12T06:50:42.511Z,14.80
2022-08-12T06:53:11.276Z,12.93
2022-08-12T06:55:56.702Z,15.85
2022-08-12T06:58:25.758Z,15.15
2022-08-12T07:00:54.666Z,18.67
2022-08-12T07:03:27.739Z,17.67
2022-08-12T07:06:06.188Z,14.20
2022-08-12T07:08:35.193Z,26.52
2022-08-12T07:11:09.540Z,19.25
2022-08-12T07:14:11.262Z,17.48
2022-08-12T07:16:49.793Z,12.85
2022-08-12T07:19:17.308Z,17.23
2022-08-12T07:21:59.843Z,11.50
2022-08-12T07:24:30.066Z,15.45
2022-08-12T07:26:57.096Z,14.38
2022-08-12T07:29:58.359Z,23.33
2022-08-12T07:32:13.258Z,13.48
2022-08-12T07:34:43.405Z,20.48
2022-08-12T07:37:13.309Z,15.48
2022-08-12T07:39:51.363Z,26.83
2022-08-12T07:42:26.696Z,20.67
2022-08-12T07:44:54.050Z,20.73
2022-08-12T07:47:21.328Z,18.38
2022-08-12T07:50:05.804Z,21.08
2022-08-12T07:52:43.194Z,16.52
2022-08-12T07:55:12.267Z,12.77
2022-08-12T07:57:56.000Z,22.58
2022-08-12T08:00:23.867Z,15.27
2022-08-12T08:02:53.499Z,16.55
2022-08-12T08:05:25.739Z,21.10
2022-08-12T08:07:53.704Z,30.15
2022-08-12T08:10:21.157Z,23.98
2022-08-12T08:12:54.096Z,16.83
2022-08-12T08:15:38.493Z,15.20
2022-08-12T08:18:11.610Z,10.93
2022-08-12T08:20:41.609Z,21.63
2022-08-12T08:23:15.410Z,11.73
2022-08-12T08:25:42.887Z,14.13
2022-08-12T08:28:13.160Z,12.63
2022-08-12T08:30:46.400Z,10.25
2022-08-12T08:33:22.972Z,12.85
2022-08-12T08:36:03.015Z,8.88
2022-08-12T08:38:33.086Z,12.60
2022-08-12T08:42:15.825Z,13.27
2022-08-12T08:44:11.431Z,5.07
2022-08-12T08:46:44.610Z,9.05
2022-08-12T08:49:12.477Z,7.93
2022-08-12T08:51:39.977Z,17.25
2022-08-12T08:54:08.926Z,12.02
2022-08-12T08:56:46.637Z,12.52
2022-08-12T08:59:14.530Z,9.70
2022-08-12T09:01:44.436Z,9.13
2022-08-12T09:05:11.779Z,12.95
2022-08-12T09:10:01.905Z,7.63
2022-08-12T09:12:54.284Z,6.10
2022-08-12T09:15:35.594Z,9.27
2022-08-12T09:18:08.711Z,11.60
2022-08-12T09:20:37.057Z,10.90
2022-08-12T09:24:00.568Z,5.85
2022-08-12T09:25:56.784Z,13.18
2022-08-12T09:28:31.443Z,11.43
2022-08-12T09:30:59.565Z,7.53
2022-08-12T09:34:28.172Z,8.88
2022-08-12T09:36:31.400Z,8.00
2022-08-12T09:40:04.554Z,7.55
2022-08-12T09:42:38.930Z,5.13
2022-08-12T09:45:24.584Z,14.63
2022-08-12T09:48:10.199Z,12.57
2022-08-12T09:50:51.917Z,11.13
2022-08-12T09:53:36.098Z,10.45
2022-08-12T09:56:57.301Z,6.32
2022-08-12T09:59:00.010Z,5.82
2022-08-12T10:01:34.934Z,4.95
2022-08-12T10:04:05.648Z,11.60
2022-08-12T10:06:36.019Z,6.53
2022-08-12T10:09:08.660Z,4.78
2022-08-12T10:12:10.544Z,5.13
2022-08-12T10:14:50.059Z,10.60
2022-08-12T10:17:22.873Z,5.20
2022-08-12T10:19:53.073Z,11.30
2022-08-12T10:22:40.398Z,10.13
2022-08-12T10:26:18.494Z,6.88
2022-08-12T10:28:38.347Z,4.90
2022-08-12T10:31:06.460Z,6.60
2022-08-12T10:33:55.148Z,4.70
2022-08-12T10:36:36.246Z,3.95
2022-08-12T10:40:00.176Z,13.23
2022-08-12T10:42:14.722Z,8.82
2022-08-12T10:44:41.906Z,8.30
2022-08-12T10:47:25.951Z,6.43
2022-08-12T10:50:05.571Z,7.78
2022-08-12T10:52:41.525Z,8.07
2022-08-12T10:55:13.430Z,5.10
2022-08-12T10:58:14.491Z,10.07
2022-08-12T11:00:34.705Z,9.02
2022-08-12T11:04:28.005Z,10.85
2022-08-12T11:07:07.719Z,7.03
2022-08-12T11:08:46.304Z,12.70
2022-08-12T11:12:35.215Z,3.38
2022-08-12T11:14:13.051Z,6.38
2022-08-12T11:17:42.954Z,5.93
2022-08-12T11:20:02.181Z,7.15
2022-08-12T11:22:29.935Z,7.38
2022-08-12T11:24:59.934Z,9.55
2022-08-12T11:27:29.524Z,8.15
2022-08-12T11:30:02.000Z,6.35
2022-08-12T11:32:39.132Z,8.63
2022-08-12T11:35:07.247Z,3.78
2022-08-12T11:37:37.928Z,6.97
2022-08-12T11:40:23.275Z,7.68
2022-08-12T11:42:50.877Z,7.43
2022-08-12T11:45:19.763Z,3.20
2022-08-12T11:47:47.084Z,13.82
2022-08-12T11:50:19.187Z,11.65
2022-08-12T11:52:56.477Z,11.25
2022-08-12T11:55:25.453Z,9.40
2022-08-12T11:58:07.411Z,8.88
2022-08-12T12:03:43.666Z,12.80
2022-08-12T12:06:18.208Z,6.97
2022-08-12T12:08:51.104Z,9.02
2022-08-12T12:11:19.793Z,6.43
2022-08-12T12:14:07.630Z,8.25
2022-08-12T12:16:38.439Z,9.77
2022-08-12T12:19:07.426Z,9.85
2022-08-12T12:21:48.695Z,5.18
2022-08-12T12:24:22.005Z,8.23
2022-08-12T12:26:59.477Z,8.23
2022-08-12T12:30:18.217Z,6.05
2022-08-12T12:32:29.387Z,5.82
2022-08-12T12:35:14.113Z,7.70
2022-08-12T12:38:04.023Z,6.85
2022-08-12T12:40:39.812Z,5.03
2022-08-12T12:43:07.756Z,8.30
2022-08-12T12:45:37.033Z,3.17
2022-08-12T12:48:07.831Z,5.05
2022-08-12T12:50:45.497Z,4.97
2022-08-12T12:54:08.846Z,4.50
2022-08-12T12:56:33.815Z,4.20
2022-08-12T12:59:03.432Z,7.45
2022-08-12T13:01:33.067Z,9.82
2022-08-12T13:04:02.983Z,5.82
2022-08-12T13:06:31.480Z,8.40
2022-08-12T13:09:02.461Z,7.55
2022-08-12T13:11:41.268Z,4.72
2022-08-12T13:14:28.035Z,9.80
2022-08-12T13:16:57.477Z,3.85
2022-08-12T13:19:38.743Z,3.85
2022-08-12T13:22:18.813Z,7.35
2022-08-12T13:24:51.911Z,6.70
2022-08-12T13:27:21.802Z,5.28
2022-08-12T13:29:48.806Z,4.95
2022-08-12T13:32:19.874Z,5.25
2022-08-12T13:35:04.160Z,4.40
2022-08-12T13:37:43.992Z,9.35
2022-08-12T13:40:18.834Z,6.32
2022-08-12T13:42:48.224Z,7.50
2022-08-12T13:45:18.067Z,5.95
2022-08-12T13:48:11.487Z,5.57
2022-08-12T13:50:40.514Z,7.57
2022-08-12T13:53:24.929Z,14.52
2022-08-12T13:56:02.222Z,5.85
2022-08-12T13:58:33.083Z,9.80
2022-08-12T14:01:05.487Z,8.80
2022-08-12T14:03:50.488Z,7.53
2022-08-12T14:06:19.551Z,5.55
2022-08-12T14:08:49.648Z,6.82
2022-08-12T14:11:25.371Z,6.75
2022-08-12T14:14:03.951Z,6.38
2022-08-12T14:16:49.172Z,8.25
2022-08-12T14:19:24.125Z,3.80
2022-08-12T14:22:01.462Z,7.25
2022-08-12T14:24:40.616Z,6.50
2022-08-12T14:27:10.436Z,7.15
2022-08-12T14:30:04.142Z,4.68
2022-08-12T14:32:35.537Z,4.28
2022-08-12T14:35:06.575Z,4.13
2022-08-12T14:37:57.864Z,9.30
2022-08-12T14:40:29.561Z,8.07
2022-08-12T14:42:58.199Z,5.43
2022-08-12T14:45:37.209Z,7.30
2022-08-12T14:48:14.827Z,5.78
2022-08-12T14:51:07.578Z,8.63
2022-08-12T14:59:56.710Z,5.47
2022-08-12T15:02:17.160Z,7.05
2022-08-12T15:04:45.319Z,5.05
2022-08-12T15:07:34.414Z,4.32
2022-08-12T15:10:01.625Z,12.15
2022-08-12T15:12:31.864Z,9.43
2022-08-12T15:15:00.357Z,11.75
2022-08-12T15:17:37.873Z,6.68
2022-08-12T15:20:32.773Z,5.80
2022-08-12T15:23:06.046Z,3.30
2022-08-12T15:25:47.813Z,3.83
2022-08-12T15:28:22.294Z,5.03
2022-08-12T15:30:53.682Z,3.88
2022-08-12T15:33:24.348Z,6.88
2022-08-12T15:35:53.877Z,10.30
2022-08-12T15:38:25.366Z,6.60
2022-08-12T15:40:54.278Z,2.83
2022-08-12T15:43:51.778Z,3.45
2022-08-12T15:46:15.932Z,4.68
2022-08-12T15:48:46.906Z,3.88
2022-08-12T15:51:58.666Z,6.55
2022-08-12T15:54:33.221Z,2.85
2022-08-12T15:57:08.067Z,3.13
2022-08-12T16:00:00.540Z,5.90
2022-08-12T16:02:26.995Z,3.35
2022-08-12T16:04:56.730Z,5.57
2022-08-12T16:07:29.766Z,11.15
2022-08-12T16:10:05.942Z,8.63
2022-08-12T16:12:55.075Z,16.42
2022-08-12T16:15:26.485Z,4.50
2022-08-12T16:18:19.673Z,8.30
2022-08-12T16:20:46.707Z,10.13
2022-08-12T16:23:36.252Z,5.78
2022-08-12T16:26:14.904Z,5.40
2022-08-12T16:28:47.374Z,2.55
2022-08-12T16:31:22.705Z,5.22
2022-08-12T16:33:58.633Z,4.80
2022-08-12T16:36:29.190Z,5.85
2022-08-12T16:38:56.643Z,3.95
2022-08-12T16:41:24.415Z,7.30
2022-08-12T16:43:55.488Z,9.65
2022-08-12T16:46:33.595Z,6.43
2022-08-12T16:49:08.564Z,4.47
2022-08-12T16:51:41.844Z,7.07
2022-08-12T16:54:14.119Z,4.30
2022-08-12T16:56:55.336Z,5.75
2022-08-12T16:59:53.548Z,2.30
2022-08-12T17:02:31.598Z,5.97
2022-08-12T17:05:03.762Z,8.35
2022-08-12T17:07:36.985Z,8.27
2022-08-12T17:10:09.646Z,5.13
2022-08-12T17:12:40.195Z,5.57
2022-08-12T17:15:51.274Z,8.80
2022-08-12T17:18:15.485Z,5.13
2022-08-12T17:20:47.545Z,2.40
2022-08-12T17:23:17.098Z,3.70
2022-08-12T17:25:46.366Z,7.10
2022-08-12T17:28:17.338Z,5.25
2022-08-12T17:30:45.504Z,6.68
2022-08-12T17:33:25.341Z,6.43
2022-08-12T17:35:53.417Z,8.65
2022-08-12T17:38:21.228Z,6.00
2022-08-12T17:40:48.995Z,4.75
2022-08-12T17:43:57.933Z,6.15
2022-08-12T17:46:13.218Z,6.50
2022-08-12T17:48:54.798Z,10.10
2022-08-12T17:51:24.594Z,5.97
2022-08-12T17:54:12.401Z,5.60
2022-08-12T17:56:43.175Z,5.03
2022-08-12T17:59:12.620Z,4.45
2022-08-12T18:01:45.479Z,5.72
2022-08-12T18:04:21.557Z,8.05
2022-08-12T18:06:52.474Z,4.53
2022-08-12T18:09:22.062Z,9.40
2022-08-12T18:12:12.895Z,4.80
2022-08-12T18:14:41.703Z,13.27
2022-08-12T18:17:18.184Z,10.70
2022-08-12T18:20:05.808Z,11.75
2022-08-12T18:22:46.993Z,5.85
2022-08-12T18:26:12.715Z,6.90
2022-08-12T18:28:28.997Z,4.35
2022-08-12T18:31:03.081Z,7.95
2022-08-12T18:33:43.873Z,7.65
2022-08-12T18:36:14.615Z,3.40
2022-08-12T18:38:56.144Z,8.27
2022-08-12T18:41:36.122Z,5.93
2022-08-12T18:44:12.281Z,4.65
2022-08-12T18:46:53.656Z,6.72
2022-08-12T18:49:39.442Z,12.57
2022-08-12T18:52:11.355Z,5.97
2022-08-12T18:54:52.927Z,6.15
2022-08-12T18:58:06.090Z,8.40
2022-08-12T19:00:20.903Z,7.97
2022-08-12T19:02:50.903Z,6.55
2022-08-12T19:05:18.240Z,13.23
2022-08-12T19:08:00.593Z,7.20
2022-08-12T19:10:32.127Z,8.77
2022-08-12T19:13:23.456Z,4.40
2022-08-12T19:15:58.045Z,8.45
2022-08-12T19:18:31.076Z,6.35
2022-08-12T19:21:06.586Z,3.20
2022-08-12T19:23:39.688Z,5.03
2022-08-12T19:26:10.823Z,7.57
2022-08-12T19:28:40.669Z,4.40
2022-08-12T19:31:55.335Z,10.23
2022-08-12T19:37:27.456Z,9.18
2022-08-12T19:40:31.286Z,10.35
2022-08-12T19:43:01.079Z,6.72
2022-08-12T19:45:43.755Z,13.57
2022-08-12T19:48:18.903Z,4.93
2022-08-12T19:50:50.439Z,6.40
2022-08-12T19:53:23.859Z,5.47
2022-08-12T19:55:57.292Z,6.68
2022-08-12T19:58:25.364Z,4.82
2022-08-12T20:00:55.450Z,8.95
2022-08-12T20:03:39.593Z,6.47
2022-08-12T20:06:21.876Z,8.57
2022-08-12T20:08:56.688Z,9.43
2022-08-12T20:12:14.507Z,5.05
2022-08-12T20:14:19.696Z,9.30
2022-08-12T20:16:52.663Z,4.90
2022-08-12T20:19:28.622Z,4.80
2022-08-12T20:22:16.768Z,7.07
2022-08-12T20:24:51.637Z,15.52
2022-08-12T20:27:29.348Z,7.32
2022-08-12T20:30:13.195Z,8.43
2022-08-12T20:32:51.312Z,6.38
2022-08-12T20:35:24.338Z,7.85
2022-08-12T20:38:07.325Z,9.77
2022-08-12T20:40:40.295Z,7.18
2022-08-12T20:43:08.575Z,6.72
2022-08-12T20:45:44.913Z,6.88
2022-08-12T20:48:19.675Z,6.03
2022-08-12T20:50:53.550Z,4.93
2022-08-12T20:53:27.693Z,6.60
2022-08-12T20:56:31.265Z,9.65
2022-08-12T20:59:01.448Z,12.38
2022-08-12T21:01:47.248Z,7.55
2022-08-12T21:04:36.987Z,8.82
2022-08-12T21:07:08.333Z,7.38
2022-08-12T21:09:41.927Z,6.75
2022-08-12T21:12:28.089Z,6.57
2022-08-12T21:15:24.308Z,11.52
2022-08-12T21:18:00.579Z,4.68
2022-08-12T21:20:35.011Z,10.90
2022-08-12T21:23:06.093Z,6.65
2022-08-12T21:25:44.188Z,4.95
2022-08-12T21:28:19.118Z,5.05
2022-08-12T21:31:11.298Z,11.43
2022-08-12T21:33:58.446Z,6.63
2022-08-12T21:36:34.556Z,11.65
2022-08-12T21:39:21.053Z,7.28
2022-08-12T21:41:52.015Z,5.85
2022-08-12T21:45:43.815Z,6.95
2022-08-12T21:47:21.037Z,7.97
2022-08-12T21:50:11.939Z,6.65
2022-08-12T21:52:42.149Z,6.38
2022-08-12T21:55:19.206Z,7.50
2022-08-12T21:57:53.307Z,8.40
2022-08-12T22:00:33.175Z,5.88
2022-08-12T22:04:03.023Z,6.00
2022-08-12T22:06:26.491Z,5.32
2022-08-12T22:09:09.028Z,5.72
2022-08-12T22:11:56.129Z,16.45
2022-08-12T22:14:28.081Z,6.40
2022-08-12T22:16:56.246Z,5.10
2022-08-12T22:19:23.531Z,4.32
2022-08-12T22:21:55.732Z,5.28
2022-08-12T22:24:26.829Z,7.93
2022-08-12T22:27:08.062Z,6.00
2022-08-12T22:30:08.939Z,6.82
2022-08-12T22:32:50.431Z,6.88
2022-08-12T22:35:55.914Z,5.90
2022-08-12T22:38:25.360Z,7.75
2022-08-12T22:41:01.966Z,5.47
2022-08-12T22:44:01.182Z,7.45
2022-08-12T22:46:32.856Z,6.25
2022-08-12T22:49:00.346Z,14.70
2022-08-12T22:52:00.227Z,5.50
2022-08-12T22:54:36.319Z,4.50
2022-08-12T22:57:05.417Z,6.40
2022-08-12T22:59:55.829Z,7.97
2022-08-12T23:02:30.165Z,5.95
2022-08-12T23:04:58.094Z,6.97
2022-08-12T23:07:25.091Z,6.15
2022-08-12T23:09:52.513Z,9.60
2022-08-12T23:12:46.422Z,8.32
2022-08-12T23:15:14.621Z,6.93
2022-08-12T23:17:41.866Z,6.32
2022-08-12T23:20:11.087Z,8.88
2022-08-12T23:22:38.739Z,8.40
2022-08-12T23:25:19.055Z,8.02
2022-08-12T23:28:30.071Z,5.85
2022-08-12T23:31:04.234Z,4.50
2022-08-12T23:34:00.797Z,6.97
2022-08-12T23:36:29.737Z,5.63
2022-08-12T23:40:13.370Z,3.85
2022-08-12T23:42:17.443Z,8.82
2022-08-12T23:44:43.849Z,7.38
2022-08-12T23:47:11.717Z,9.45
2022-08-12T23:49:58.952Z,10.38
2022-08-12T23:52:34.672Z,7.45
2022-08-12T23:55:23.787Z,7.90
2022-08-12T23:58:20.693Z,7.65
